This is the latest recevied weather packets stored in our database for station/object S51UL-6. If no packets are shown the sender has not sent any weather packets the latest 10 day(s).
| Time | Temp. | Humidity | Pressure | Rain* | Wind** | Luminosity | Snow |
|---|---|---|---|---|---|---|---|
| 1787491140 | 29.44° C | 46% | 1021.4 hPa | 0 mm | - | - | - |
| 1787490841 | 29.44° C | 48% | 1021.5 hPa | 0 mm | - | - | - |
| 1787490540 | 28.89° C | 48% | 1021.5 hPa | 0 mm | - | - | - |
| 1787490240 | 28.89° C | 48% | 1021.5 hPa | 0 mm | - | - | - |
| 1787489940 | 28.89° C | 48% | 1021.6 hPa | 0 mm | - | - | - |
| 1787489340 | 28.89° C | 47% | 1021.5 hPa | 0 mm | - | - | - |
| 1787488440 | 29.44° C | 47% | 1021.8 hPa | 0 mm | - | - | - |
| 1787487841 | 30° C | 47% | 1022.2 hPa | 0 mm | - | - | - |
| 1787487242 | 30° C | 49% | 1022.2 hPa | 0 mm | - | - | - |
| 1787486640 | 29.44° C | 47% | 1022.3 hPa | 0 mm | - | - | - |
| 1787486342 | 30° C | 47% | 1022.3 hPa | 0 mm | - | - | - |
| 1787485742 | 30° C | 48% | 1022.4 hPa | 0 mm | - | - | - |
| 1787485443 | 30° C | 47% | 1022.4 hPa | 0 mm | - | - | - |
| 1787485141 | 30° C | 48% | 1022.5 hPa | 0 mm | - | - | - |
| 1787484841 | 30° C | 47% | 1022.4 hPa | 0 mm | - | - | - |
| 1787484541 | 30.56° C | 47% | 1022.5 hPa | 0 mm | - | - | - |
| 1787484241 | 30.56° C | 48% | 1022.7 hPa | 0 mm | - | - | - |
| 1787483941 | 30.56° C | 49% | 1022.7 hPa | 0 mm | - | - | - |
| 1787483641 | 30.56° C | 50% | 1022.7 hPa | 0 mm | - | - | - |
| 1787483041 | 29.44° C | 54% | 1022.9 hPa | 0 mm | - | - | - |
| 1787482742 | 28.89° C | 54% | 1022.8 hPa | 0 mm | - | - | - |
| 1787481841 | 26.67° C | 59% | 1023.1 hPa | 0 mm | - | - | - |
| 1787481541 | 26.11° C | 60% | 1023.2 hPa | 0 mm | - | - | - |
| 1787481242 | 25.56° C | 60% | 1023.2 hPa | 0 mm | - | - | - |
| 1787480344 | 24.44° C | 60% | 1023.3 hPa | 0 mm | - | - | - |
* Rain latest hour (hover to see other rain measurements)
** Current wind speed in m/s (hover to see current wind gust speed)